Time;durP1;ratioP1;P1;durP2;ratioP2;P2;SDS_P1;SDS_P2;PMS_P1;PMS_P2;Temp;Humidity;BMP_temperature;BMP_pressure;BME280_temperature;BME280_humidity;BME280_pressure;Samples;Min_cycle;Max_cycle;Signal;HPM_P1;HPM_P2
2023/10/01 00:01:19;;;;;;;5.55;2.92;;;;;;;13.74;100.00;99364.44;4470376;32;20142;-75
2023/10/01 00:03:47;;;;;;;5.75;3.50;;;;;;;13.70;100.00;99368.37;4470190;32;20116;-76
2023/10/01 00:06:15;;;;;;;7.82;3.20;;;;;;;13.65;100.00;99368.75;4470079;32;20088;-75
2023/10/01 00:08:43;;;;;;;5.68;3.10;;;;;;;13.58;100.00;99372.97;4470014;32;20105;-75
2023/10/01 00:11:11;;;;;;;7.45;3.12;;;;;;;13.52;100.00;99367.41;4470174;32;20124;-75
2023/10/01 00:13:39;;;;;;;5.50;3.20;;;;;;;13.45;100.00;99362.72;4470055;32;20151;-75
2023/10/01 00:16:07;;;;;;;6.65;3.03;;;;;;;13.43;100.00;99367.28;4478189;32;20131;-75
2023/10/01 00:18:47;;;;;;;5.62;3.28;;;;;;;13.48;100.00;99377.41;4485696;31;20088;-76
2023/10/01 00:21:14;;;;;;;6.10;2.78;;;;;;;13.50;100.00;99378.06;4485744;31;20740;-75
2023/10/01 00:23:44;;;;;;;6.75;3.30;;;;;;;13.35;100.00;99377.69;4485819;32;20173;-75
2023/10/01 00:26:12;;;;;;;6.95;3.40;;;;;;;13.22;100.00;99375.31;4485572;31;20092;-75
2023/10/01 00:28:40;;;;;;;5.32;3.10;;;;;;;13.25;100.00;99372.41;4485418;32;20080;-75
2023/10/01 00:31:11;;;;;;;4.93;3.17;;;;;;;13.27;100.00;99378.34;4485627;31;20092;-75
2023/10/01 00:33:38;;;;;;;6.82;3.33;;;;;;;13.15;100.00;99387.34;4485557;31;20097;-75
2023/10/01 00:36:06;;;;;;;5.20;3.90;;;;;;;13.08;100.00;99375.72;4485576;32;20099;-75
2023/10/01 00:38:34;;;;;;;6.18;3.08;;;;;;;13.00;100.00;99373.78;4485505;31;20103;-75
2023/10/01 00:41:01;;;;;;;5.87;3.20;;;;;;;12.88;100.00;99378.31;4485682;31;20101;-75
2023/10/01 00:43:32;;;;;;;4.85;2.97;;;;;;;12.84;100.00;99369.06;4485477;31;20089;-75
2023/10/01 00:46:02;;;;;;;6.10;3.30;;;;;;;12.85;100.00;99375.16;4484701;32;20456;-75
2023/10/01 00:48:30;;;;;;;5.65;3.00;;;;;;;12.82;100.00;99371.00;4485647;31;20099;-76
2023/10/01 00:51:00;;;;;;;7.50;3.20;;;;;;;12.86;100.00;99369.75;4484254;32;20122;-76
2023/10/01 00:53:28;;;;;;;6.03;3.10;;;;;;;12.88;100.00;99367.81;4479209;31;20123;-75
2023/10/01 00:55:59;;;;;;;6.40;3.22;;;;;;;12.71;100.00;99365.88;4468495;32;20492;-75
2023/10/01 00:58:26;;;;;;;7.47;3.35;;;;;;;12.71;100.00;99371.94;4469609;32;20085;-75
2023/10/01 01:00:55;;;;;;;8.57;3.58;;;;;;;12.66;100.00;99368.09;4469742;32;20097;-75
2023/10/01 01:03:23;;;;;;;6.15;3.20;;;;;;;12.52;100.00;99372.75;4469665;32;20105;-75
2023/10/01 01:06:13;;;;;;;6.22;3.33;;;;;;;12.47;100.00;99376.75;4469783;32;20551;-75
2023/10/01 01:08:47;;;;;;;9.45;3.50;;;;;;;12.36;100.00;99382.94;4469398;32;20123;-75
2023/10/01 01:11:15;;;;;;;4.68;3.15;;;;;;;12.38;100.00;99389.72;4468423;32;20114;-75
2023/10/01 01:13:47;;;;;;;6.30;3.17;;;;;;;12.31;100.00;99385.13;4469777;32;20132;-75
2023/10/01 01:16:19;;;;;;;5.53;3.17;;;;;;;12.18;100.00;99391.44;4478612;32;20091;-75
2023/10/01 01:18:51;;;;;;;5.78;3.33;;;;;;;12.20;100.00;99394.78;4484123;32;20096;-75
2023/10/01 01:21:20;;;;;;;5.60;3.30;;;;;;;12.06;100.00;99389.88;4485635;31;20175;-75
2023/10/01 01:23:50;;;;;;;6.15;3.75;;;;;;;12.01;100.00;99390.25;4483889;32;20100;-75
2023/10/01 01:26:21;;;;;;;8.23;3.22;;;;;;;12.00;100.00;99393.00;4485336;31;20123;-75
2023/10/01 01:28:49;;;;;;;6.05;3.30;;;;;;;11.98;100.00;99385.28;4485267;31;20154;-75
2023/10/01 01:31:19;;;;;;;7.93;3.55;;;;;;;11.99;100.00;99391.34;4485295;31;20351;-75
2023/10/01 01:33:52;;;;;;;4.80;3.00;;;;;;;11.96;100.00;99394.22;4485269;31;20142;-75
2023/10/01 01:36:20;;;;;;;7.03;3.60;;;;;;;11.95;100.00;99388.16;4485265;31;20096;-75
2023/10/01 01:39:26;;;;;;;7.72;3.10;;;;;;;11.83;100.00;99384.75;4485194;32;20507;-75
2023/10/01 01:41:54;;;;;;;6.90;3.53;;;;;;;11.84;100.00;99390.81;4484001;32;20089;-75
2023/10/01 01:44:23;;;;;;;6.90;3.28;;;;;;;11.71;100.00;99388.41;4485046;31;20392;-75
2023/10/01 01:46:59;;;;;;;8.98;3.78;;;;;;;11.68;100.00;99397.38;4485213;31;20104;-75
2023/10/01 01:49:27;;;;;;;6.30;3.35;;;;;;;11.75;100.00;99387.19;4484901;31;20088;-75
2023/10/01 01:51:59;;;;;;;5.35;3.00;;;;;;;11.72;100.00;99387.47;4485061;31;20153;-75
2023/10/01 01:54:34;;;;;;;6.05;3.37;;;;;;;11.76;100.00;99388.03;4472436;31;20409;-75
2023/10/01 01:57:02;;;;;;;;;;;;;;;11.78;100.00;99393.97;4468600;32;36215;-75
2023/10/01 01:59:31;;;;;;;5.25;2.87;;;;;;;11.81;100.00;99397.19;4469547;32;19987;-75
2023/10/01 02:02:01;;;;;;;7.12;3.12;;;;;;;11.95;100.00;99409.16;4469360;32;20386;-75
2023/10/01 02:04:30;;;;;;;6.68;3.08;;;;;;;12.05;100.00;99404.81;4469224;32;20109;-75
2023/10/01 02:06:59;;;;;;;6.72;3.10;;;;;;;12.13;100.00;99398.87;4469204;32;20097;-75
2023/10/01 02:09:26;;;;;;;7.18;3.30;;;;;;;12.10;100.00;99411.44;4469046;32;20164;-75
2023/10/01 02:11:53;;;;;;;5.37;3.28;;;;;;;12.06;100.00;99408.25;4469204;32;20103;-75
2023/10/01 02:14:31;;;;;;;4.18;3.00;;;;;;;12.03;100.00;99405.87;4468850;32;20455;-75
2023/10/01 02:17:15;;;;;;;8.15;3.45;;;;;;;12.10;100.00;99407.03;4483320;32;20151;-75
2023/10/01 02:19:46;;;;;;;5.93;3.30;;;;;;;12.00;100.00;99411.41;4484802;31;20115;-75
2023/10/01 02:22:16;;;;;;;5.85;3.40;;;;;;;11.92;100.00;99416.44;4483820;32;20160;-75
2023/10/01 02:24:54;;;;;;;7.15;3.47;;;;;;;11.85;100.00;99409.09;4484679;31;20089;-75
2023/10/01 02:27:28;;;;;;;5.32;3.40;;;;;;;11.74;100.00;99403.91;4484829;31;20565;-75
2023/10/01 02:30:13;;;;;;;5.82;3.33;;;;;;;11.65;100.00;99404.69;4484701;31;20537;-75
2023/10/01 02:33:15;;;;;;;5.47;3.40;;;;;;;11.60;100.00;99399.00;4484933;31;20132;-75
2023/10/01 02:35:41;;;;;;;8.45;3.35;;;;;;;11.45;100.00;99396.66;4484322;31;20099;-75
2023/10/01 02:40:58;;;;;;;6.68;3.40;;;;;;;11.32;100.00;99394.22;4484474;32;20084;-75
2023/10/01 02:43:33;;;;;;;5.45;3.03;;;;;;;11.23;100.00;99396.78;4484625;31;20171;-75
2023/10/01 02:46:07;;;;;;;7.62;3.53;;;;;;;11.22;100.00;99400.34;4484682;31;20144;-75
2023/10/01 02:48:36;;;;;;;3.70;2.83;;;;;;;11.09;100.00;99395.28;4484594;31;20544;-75
2023/10/01 02:51:15;;;;;;;7.65;3.40;;;;;;;11.11;100.00;99406.47;4484539;31;20107;-75
2023/10/01 02:54:01;;;;;;;6.35;3.28;;;;;;;11.08;100.00;99399.69;4476777;32;20076;-75
2023/10/01 02:56:52;;;;;;;5.20;2.83;;;;;;;11.04;100.00;99400.03;4468878;32;20130;-75
2023/10/01 02:59:21;;;;;;;6.43;3.05;;;;;;;11.02;100.00;99400.16;4468698;32;20556;-75
2023/10/01 03:01:50;;;;;;;8.90;2.90;;;;;;;11.03;100.00;99404.47;4469003;32;20431;-75
2023/10/01 03:04:18;;;;;;;5.82;3.08;;;;;;;11.00;100.00;99397.69;4468707;32;20138;-75
2023/10/01 03:06:56;;;;;;;6.40;2.80;;;;;;;11.11;100.00;99404.69;4468480;32;20138;-75
2023/10/01 03:09:39;;;;;;;5.60;3.08;;;;;;;11.08;100.00;99407.56;4467879;32;20093;-75
2023/10/01 03:12:27;;;;;;;7.40;3.08;;;;;;;10.96;100.00;99411.16;4468756;32;20568;-75
2023/10/01 03:15:16;;;;;;;7.28;2.45;;;;;;;10.99;100.00;99396.03;4468760;32;20145;-75
2023/10/01 03:17:56;;;;;;;7.43;2.40;;;;;;;10.86;100.00;99399.78;4484297;31;20092;-75
2023/10/01 03:23:07;;;;;;;8.25;2.70;;;;;;;10.86;100.00;99400.59;4484135;31;20596;-75
2023/10/01 03:25:42;;;;;;;9.13;2.83;;;;;;;10.83;100.00;99401.66;4483922;31;20554;-75
2023/10/01 03:28:26;;;;;;;6.18;2.97;;;;;;;10.86;100.00;99399.78;4484035;31;20111;-75
2023/10/01 03:31:09;;;;;;;7.00;3.00;;;;;;;10.84;100.00;99397.28;4483901;31;20092;-75
2023/10/01 03:33:38;;;;;;;6.25;3.42;;;;;;;10.87;100.00;99396.16;4483852;31;20099;-75
2023/10/01 03:36:12;;;;;;;5.65;2.75;;;;;;;10.89;100.00;99391.66;4483836;31;20389;-75
2023/10/01 03:38:44;;;;;;;5.95;2.80;;;;;;;10.77;100.00;99391.66;4483834;31;20442;-75
2023/10/01 03:41:27;;;;;;;7.05;3.15;;;;;;;10.75;100.00;99395.38;4483803;31;20085;-75
2023/10/01 03:43:56;;;;;;;4.18;3.10;;;;;;;10.73;100.00;99395.50;4483813;31;20088;-75
2023/10/01 03:46:26;;;;;;;6.80;3.20;;;;;;;10.71;100.00;99393.97;4483714;31;20119;-75
2023/10/01 03:48:58;;;;;;;6.80;2.53;;;;;;;10.69;100.00;99388.84;4483641;31;20744;-75
2023/10/01 03:57:12;;;;;;;4.82;2.28;;;;;;;10.56;100.00;99388.97;4467883;32;20374;-75
2023/10/01 03:59:41;;;;;;;6.93;2.95;;;;;;;10.60;100.00;99387.78;4468051;32;20108;-75
2023/10/01 04:02:27;;;;;;;4.75;2.45;;;;;;;10.62;100.00;99392.91;4467749;32;20123;-75
2023/10/01 04:04:58;;;;;;;6.18;2.85;;;;;;;10.56;100.00;99396.84;4467856;32;20088;-75
2023/10/01 04:07:45;;;;;;;5.68;2.97;;;;;;;10.45;100.00;99402.94;4467920;32;20107;-75
2023/10/01 04:12:54;;;;;;;4.80;2.53;;;;;;;10.42;100.00;99403.16;4467996;32;20151;-75
2023/10/01 04:15:27;;;;;;;5.28;2.67;;;;;;;10.47;100.00;99401.00;4470974;32;20136;-75
2023/10/01 04:23:30;;;;;;;7.43;3.05;;;;;;;10.42;100.00;99415.44;4485688;32;20132;-75
2023/10/01 04:26:06;;;;;;;10.50;2.90;;;;;;;10.53;100.00;99415.41;4485857;31;20141;-75
2023/10/01 04:28:41;;;;;;;5.78;2.60;;;;;;;10.37;100.00;99413.19;4485702;31;20145;-75
2023/10/01 04:31:10;;;;;;;12.05;3.05;;;;;;;10.49;100.00;99421.84;4485535;31;20089;-75
2023/10/01 04:33:42;;;;;;;7.72;2.90;;;;;;;10.53;100.00;99425.06;4485631;31;20157;-75
2023/10/01 04:36:11;;;;;;;7.45;3.37;;;;;;;10.56;100.00;99424.84;4485640;31;20088;-75
2023/10/01 04:38:41;;;;;;;7.57;3.35;;;;;;;10.58;100.00;99422.91;4485878;31;20089;-75
2023/10/01 04:41:22;;;;;;;10.45;2.42;;;;;;;10.62;100.00;99430.41;4485403;31;20100;-75
2023/10/01 04:43:55;;;;;;;5.32;2.45;;;;;;;10.69;100.00;99435.16;4485802;31;20445;-75
2023/10/01 04:46:30;;;;;;;8.52;2.80;;;;;;;10.68;100.00;99444.81;4485353;31;20076;-75
2023/10/01 04:49:07;;;;;;;6.60;3.00;;;;;;;10.65;100.00;99443.25;4485523;31;20072;-75
2023/10/01 04:51:47;;;;;;;5.95;2.72;;;;;;;10.51;100.00;99447.91;4485627;31;20080;-75
2023/10/01 04:54:21;;;;;;;8.25;3.33;;;;;;;10.48;100.00;99441.97;4474007;31;20124;-75
2023/10/01 04:56:49;;;;;;;10.13;3.33;;;;;;;10.39;100.00;99440.06;4469692;32;20081;-75
2023/10/01 04:59:18;;;;;;;10.77;3.47;;;;;;;10.37;100.00;99444.63;4469880;32;20445;-75
2023/10/01 05:01:47;;;;;;;4.87;2.80;;;;;;;10.42;100.00;99447.69;4469542;32;20156;-75
2023/10/01 05:04:15;;;;;;;6.50;2.85;;;;;;;10.50;100.00;99451.50;4469751;32;20128;-75
2023/10/01 05:06:43;;;;;;;5.65;2.87;;;;;;;10.54;100.00;99456.38;4469616;32;20100;-75
2023/10/01 05:09:14;;;;;;;9.15;3.40;;;;;;;10.45;100.00;99454.50;4469712;32;20101;-75
2023/10/01 05:11:43;;;;;;;8.70;3.28;;;;;;;10.56;100.00;99458.88;4469915;32;20116;-75
2023/10/01 05:14:12;;;;;;;9.50;2.85;;;;;;;10.56;100.00;99458.88;4469593;32;20589;-75
2023/10/01 05:16:39;;;;;;;9.00;2.70;;;;;;;10.64;100.00;99459.09;4480856;32;20096;-75
2023/10/01 05:19:09;;;;;;;9.43;3.30;;;;;;;10.59;100.00;99462.09;4485415;31;20115;-75
2023/10/01 05:21:46;;;;;;;7.22;2.78;;;;;;;10.57;100.00;99463.19;4485412;31;20089;-75
2023/10/01 05:24:16;;;;;;;4.37;2.30;;;;;;;10.61;100.00;99464.59;4485366;31;20089;-75
2023/10/01 05:26:44;;;;;;;11.48;3.05;;;;;;;10.70;100.00;99452.56;4485507;31;20110;-75
2023/10/01 05:29:20;;;;;;;7.82;2.58;;;;;;;10.81;100.00;99460.41;4485203;31;20100;-75
2023/10/01 05:31:49;;;;;;;11.27;2.78;;;;;;;10.96;100.00;99459.19;4484510;32;20096;-75
2023/10/01 05:34:19;;;;;;;5.65;2.40;;;;;;;11.08;100.00;99457.38;4482525;31;78645;-75
2023/10/01 05:36:49;;;;;;;7.68;2.72;;;;;;;11.10;100.00;99455.47;4485028;31;20100;-75
2023/10/01 05:39:16;;;;;;;7.57;2.90;;;;;;;11.30;100.00;99460.87;4485177;31;20474;-75
2023/10/01 05:41:44;;;;;;;6.60;3.00;;;;;;;11.41;100.00;99458.22;4484886;31;20768;-75
2023/10/01 05:44:12;;;;;;;8.55;2.75;;;;;;;11.43;100.00;99461.56;4484897;31;20100;-75
2023/10/01 05:46:40;;;;;;;5.82;2.50;;;;;;;11.52;100.00;99466.06;4470880;32;20088;-75
2023/10/01 05:49:08;;;;;;;10.48;2.85;;;;;;;11.62;100.00;99466.13;4484851;31;20077;-75
2023/10/01 05:51:45;;;;;;;6.72;2.72;;;;;;;11.70;100.00;99470.72;4485125;31;20100;-75
2023/10/01 05:54:18;;;;;;;12.90;3.17;;;;;;;11.67;100.00;99481.47;4474147;31;20124;-75
2023/10/01 05:56:48;;;;;;;5.60;2.63;;;;;;;11.83;100.00;99483.69;4469383;32;20105;-75
2023/10/01 05:59:20;;;;;;;5.68;2.45;;;;;;;11.69;100.00;99482.22;4468181;32;20111;-75
2023/10/01 06:01:48;;;;;;;5.72;2.58;;;;;;;11.72;100.00;99487.19;4469359;32;20119;-75
2023/10/01 06:04:18;;;;;;;5.87;2.50;;;;;;;11.71;100.00;99475.03;4469145;32;20147;-75
2023/10/01 06:06:46;;;;;;;6.50;2.87;;;;;;;11.84;100.00;99485.31;4469027;32;20097;-75
2023/10/01 06:09:23;;;;;;;5.62;2.20;;;;;;;11.78;100.00;99480.59;4469557;32;20474;-75
2023/10/01 06:12:03;;;;;;;8.02;2.50;;;;;;;11.81;100.00;99485.59;4469181;32;20135;-75
2023/10/01 06:14:40;;;;;;;8.60;2.67;;;;;;;11.64;100.00;99481.72;4469193;32;20080;-75
2023/10/01 06:17:10;;;;;;;5.75;2.55;;;;;;;11.80;100.00;99489.19;4483707;32;20108;-75
2023/10/01 06:19:40;;;;;;;10.68;2.92;;;;;;;11.93;100.00;99489.87;4484973;31;20073;-75
2023/10/01 06:22:22;;;;;;;10.73;2.65;;;;;;;11.96;100.00;99488.75;4485029;31;20112;-75
2023/10/01 06:24:51;;;;;;;6.93;2.20;;;;;;;12.07;100.00;99491.34;4484894;31;20110;-75
2023/10/01 06:27:19;;;;;;;10.32;2.20;;;;;;;12.30;100.00;99493.81;4484637;31;20096;-75
2023/10/01 06:29:52;;;;;;;7.28;2.90;;;;;;;12.30;100.00;99483.31;4484717;31;20116;-75
2023/10/01 06:32:21;;;;;;;7.10;2.55;;;;;;;11.98;100.00;99486.84;4484805;32;20092;-75
2023/10/01 06:34:57;;;;;;;5.22;2.00;;;;;;;12.30;100.00;99491.19;4484650;31;20156;-75
2023/10/01 06:37:45;;;;;;;13.48;3.12;;;;;;;12.52;100.00;99500.69;4485035;31;20101;-75
2023/10/01 06:40:29;;;;;;;7.68;2.42;;;;;;;12.51;100.00;99494.59;4484779;31;20484;-75
2023/10/01 06:43:00;;;;;;;6.72;2.62;;;;;;;12.47;100.00;99493.19;4483324;31;20085;-75
2023/10/01 06:45:41;;;;;;;6.20;2.37;;;;;;;12.73;100.00;99493.59;4484732;31;20114;-75
2023/10/01 06:48:09;;;;;;;8.45;2.30;;;;;;;12.69;100.00;99500.06;4484576;31;20088;-75
2023/10/01 06:50:39;;;;;;;5.95;2.25;;;;;;;12.75;100.00;99507.44;4484548;31;20092;-75
2023/10/01 06:53:07;;;;;;;7.78;2.30;;;;;;;12.91;100.00;99506.94;4480634;31;20172;-75
2023/10/01 06:55:36;;;;;;;5.30;2.58;;;;;;;12.86;100.00;99503.88;4469073;32;20456;-76
2023/10/01 06:58:06;;;;;;;6.53;2.15;;;;;;;13.10;100.00;99505.31;4468612;32;20112;-75
2023/10/01 07:00:35;;;;;;;12.40;2.67;;;;;;;13.14;100.00;99514.59;4468851;32;20600;-75
2023/10/01 07:03:21;;;;;;;7.80;2.50;;;;;;;13.22;100.00;99519.19;4468601;32;20115;-75
2023/10/01 07:05:56;;;;;;;7.15;2.40;;;;;;;13.15;100.00;99524.16;4468761;32;20092;-75
2023/10/01 07:08:43;;;;;;;7.32;2.08;;;;;;;13.25;100.00;99530.28;4468616;32;20088;-75
2023/10/01 07:11:18;;;;;;;11.10;2.65;;;;;;;13.22;100.00;99527.91;4468930;32;20119;-75
2023/10/01 07:13:48;;;;;;;6.50;2.33;;;;;;;13.11;100.00;99528.00;4468673;32;20081;-76
2023/10/01 07:16:40;;;;;;;10.45;2.20;;;;;;;13.31;100.00;99523.66;4477633;32;20100;-75
2023/10/01 07:19:11;;;;;;;6.82;2.20;;;;;;;13.25;100.00;99527.66;4484205;31;20118;-75
2023/10/01 07:21:45;;;;;;;7.62;2.20;;;;;;;13.56;100.00;99524.12;4484248;31;20080;-75
2023/10/01 07:24:12;;;;;;;6.85;2.15;;;;;;;13.60;100.00;99518.44;4483894;31;20085;-76
2023/10/01 07:26:41;;;;;;;7.50;2.30;;;;;;;13.77;100.00;99518.72;4484101;31;20157;-76
2023/10/01 07:29:10;;;;;;;7.28;2.25;;;;;;;14.02;100.00;99531.31;4483812;31;20195;-76
2023/10/01 07:31:38;;;;;;;7.12;2.15;;;;;;;13.97;99.26;99528.28;4483887;32;20118;-75
2023/10/01 07:34:16;;;;;;;6.37;2.20;;;;;;;14.11;99.99;99523.53;4482374;32;20104;-75
2023/10/01 07:36:45;;;;;;;9.88;2.70;;;;;;;14.09;96.66;99528.94;4484163;31;20093;-75
2023/10/01 07:39:15;;;;;;;7.35;2.08;;;;;;;14.22;97.02;99528.66;4483923;31;20241;-75
2023/10/01 07:41:44;;;;;;;6.03;2.10;;;;;;;14.23;94.25;99535.59;4483881;31;20100;-75
2023/10/01 07:44:12;;;;;;;11.88;2.92;;;;;;;14.09;94.56;99544.75;4483975;31;20160;-75
2023/10/01 07:46:42;;;;;;;10.10;2.45;;;;;;;14.33;94.60;99535.56;4483751;31;20154;-76
2023/10/01 07:49:10;;;;;;;6.97;2.12;;;;;;;14.42;94.64;99541.78;4483545;31;20147;-75
2023/10/01 07:51:38;;;;;;;6.55;2.30;;;;;;;14.47;96.06;99536.91;4483746;31;20114;-75
2023/10/01 07:54:12;;;;;;;7.10;2.28;;;;;;;14.64;94.52;99535.34;4472671;32;20113;-75
2023/10/01 07:56:49;;;;;;;6.22;1.60;;;;;;;14.79;91.40;99536.56;4470260;32;20081;-75
2023/10/01 07:59:34;;;;;;;7.97;1.90;;;;;;;15.06;91.73;99541.03;4470315;32;20088;-76
2023/10/01 08:02:09;;;;;;;6.87;2.10;;;;;;;15.05;90.80;99539.34;4470237;32;20152;-75
2023/10/01 08:07:17;;;;;;;7.28;2.20;;;;;;;15.19;89.71;99548.56;4470113;32;20443;-76
2023/10/01 08:09:51;;;;;;;5.50;2.60;;;;;;;15.14;89.41;99542.91;4469978;32;20116;-75
2023/10/01 08:12:28;;;;;;;3.65;1.80;;;;;;;15.29;88.70;99559.09;4470070;32;20103;-76
2023/10/01 08:17:43;;;;;;;6.05;1.98;;;;;;;15.26;89.17;99564.63;4485900;31;20164;-75
2023/10/01 08:20:21;;;;;;;8.00;1.95;;;;;;;15.40;88.26;99568.63;4485593;31;20088;-75
2023/10/01 08:25:42;;;;;;;6.28;1.80;;;;;;;15.66;86.02;99557.31;4485536;31;20096;-75
2023/10/01 08:30:43;;;;;;;5.30;1.55;;;;;;;16.20;83.87;99542.28;4485410;31;20088;-75
2023/10/01 08:33:26;;;;;;;5.70;2.03;;;;;;;16.52;80.23;99542.63;4485631;31;20118;-75
2023/10/01 08:35:56;;;;;;;6.50;2.05;;;;;;;16.46;82.29;99554.69;4485299;32;20116;-75
2023/10/01 08:38:26;;;;;;;8.20;2.00;;;;;;;16.51;80.25;99549.75;4485638;31;20100;-76
2023/10/01 08:41:00;;;;;;;5.30;2.00;;;;;;;16.50;82.12;99554.22;4485469;31;20171;-76
2023/10/01 08:43:31;;;;;;;7.15;2.42;;;;;;;16.11;83.79;99545.84;4484271;32;20153;-75
2023/10/01 08:46:05;;;;;;;9.85;2.55;;;;;;;15.99;84.11;99555.84;4485503;31;20487;-76
2023/10/01 08:48:36;;;;;;;;;;;;;;;15.89;85.52;99553.25;4485991;31;20080;-76
2023/10/01 08:51:11;;;;;;;4.85;2.08;;;;;;;15.76;87.37;99572.13;4484363;32;20375;-76
2023/10/01 08:53:41;;;;;;;7.75;2.22;;;;;;;15.78;87.90;99569.34;4477205;32;20168;-75
2023/10/01 08:56:17;;;;;;;11.70;2.10;;;;;;;16.07;87.76;99582.31;4469603;32;20093;-76
2023/10/01 08:58:52;;;;;;;8.63;2.17;;;;;;;16.28;86.10;99571.41;4469778;32;20132;-76
2023/10/01 09:01:20;;;;;;;6.10;1.77;;;;;;;16.67;82.23;99575.47;4468799;32;20115;-76
2023/10/01 09:03:49;;;;;;;6.00;2.10;;;;;;;16.92;82.11;99578.28;4469786;32;20366;-75
2023/10/01 09:06:28;;;;;;;4.68;2.22;;;;;;;16.84;75.88;99577.22;4468684;32;20093;-76
2023/10/01 09:09:19;;;;;;;7.13;2.00;;;;;;;16.76;78.85;99582.47;4469633;32;20085;-76
2023/10/01 09:11:50;;;;;;;8.40;2.53;;;;;;;16.71;78.94;99579.44;4469717;32;20080;-76
2023/10/01 09:14:34;;;;;;;7.55;2.12;;;;;;;16.98;78.26;99572.34;4468369;32;20553;-76
2023/10/01 09:17:24;;;;;;;9.43;3.37;;;;;;;17.17;77.29;99566.81;4483427;32;20093;-75
2023/10/01 09:19:54;;;;;;;5.25;2.10;;;;;;;17.11;79.81;99566.59;4485425;31;20084;-76
2023/10/01 09:25:19;;;;;;;4.80;1.85;;;;;;;17.55;74.44;99575.19;4485240;31;20478;-76
2023/10/01 09:28:19;;;;;;;6.43;1.95;;;;;;;17.55;76.46;99569.06;4485270;31;20487;-76
2023/10/01 09:31:26;;;;;;;4.47;1.80;;;;;;;17.70;74.75;99562.12;4485272;31;20112;-76
2023/10/01 09:33:51;;;;;;;7.15;1.85;;;;;;;17.91;71.08;99568.78;4485177;31;20160;-76
2023/10/01 09:36:45;;;;;;;2.65;1.50;;;;;;;18.11;69.64;99569.31;4485348;31;20088;-76
2023/10/01 09:39:22;;;;;;;;;;;;;;;18.04;68.58;99569.13;4483433;31;20499;-76
2023/10/01 09:41:52;;;;;;;6.53;2.25;;;;;;;18.06;70.18;99568.97;4484102;32;19993;-76
2023/10/01 09:44:19;;;;;;;7.10;2.08;;;;;;;18.16;70.50;99574.94;4485215;31;20534;-76
2023/10/01 09:46:47;;;;;;;4.03;1.90;;;;;;;18.37;71.12;99563.00;4483704;32;20421;-76
2023/10/01 09:49:30;;;;;;;5.40;3.05;;;;;;;18.62;70.41;99567.25;4483911;32;20097;-76
2023/10/01 09:52:01;;;;;;;9.40;2.05;;;;;;;18.84;71.02;99562.22;4483778;32;20114;-76
2023/10/01 09:54:39;;;;;;;4.65;2.00;;;;;;;18.60;71.22;99566.56;4471330;32;20545;-76
2023/10/01 09:57:08;;;;;;;7.60;1.87;;;;;;;18.42;69.88;99568.59;4468106;32;20104;-76
2023/10/01 09:59:39;;;;;;;3.72;1.48;;;;;;;18.42;70.51;99565.97;4468160;32;20100;-76
2023/10/01 10:02:07;;;;;;;5.87;2.17;;;;;;;18.25;68.48;99568.63;4469421;32;20081;-76
2023/10/01 10:04:39;;;;;;;6.25;1.83;;;;;;;18.29;69.34;99570.94;4469391;32;20096;-76
2023/10/01 10:07:08;;;;;;;7.57;1.70;;;;;;;18.22;68.07;99566.31;4469161;32;20081;-76
2023/10/01 10:09:37;;;;;;;8.98;1.80;;;;;;;18.43;67.32;99565.78;4467962;32;20105;-76
2023/10/01 10:12:07;;;;;;;3.42;1.50;;;;;;;18.70;66.64;99562.91;4468050;32;20113;-76
2023/10/01 10:14:36;;;;;;;6.37;1.80;;;;;;;18.86;67.13;99570.84;4469333;32;20091;-76
2023/10/01 10:20:25;;;;;;;5.30;1.58;;;;;;;18.86;64.91;99568.19;4484829;31;20455;-76
2023/10/01 10:23:29;;;;;;;8.52;1.87;;;;;;;18.58;65.34;99570.41;4484859;31;20102;-76
2023/10/01 10:26:14;;;;;;;4.82;1.70;;;;;;;19.20;64.79;99574.22;4483590;32;20100;-76
2023/10/01 10:28:54;;;;;;;5.68;1.58;;;;;;;19.59;64.74;99574.19;4483303;32;20092;-76
2023/10/01 10:31:37;;;;;;;6.60;1.62;;;;;;;19.81;62.78;99563.75;4484826;31;20096;-76
2023/10/01 10:34:26;;;;;;;7.43;2.12;;;;;;;20.29;62.55;99564.34;4484719;31;20076;-76
2023/10/01 10:36:54;;;;;;;5.75;1.70;;;;;;;20.74;61.51;99559.09;4484796;31;20350;-76
2023/10/01 10:39:44;;;;;;;5.30;1.40;;;;;;;21.01;58.85;99557.59;4484621;31;20168;-76
2023/10/01 10:42:29;;;;;;;3.40;1.60;;;;;;;21.23;58.11;99555.03;4484707;31;20142;-76
2023/10/01 10:45:21;;;;;;;5.97;1.65;;;;;;;21.41;58.01;99554.62;4484775;32;20141;-76
2023/10/01 10:48:03;;;;;;;5.47;1.60;;;;;;;21.58;57.14;99558.72;4484680;31;20103;-76
2023/10/01 10:50:52;;;;;;;2.58;1.23;;;;;;;21.54;56.28;99553.94;4484641;31;20076;-76
2023/10/01 10:53:37;;;;;;;4.95;1.42;;;;;;;21.42;54.79;99551.75;4477986;31;20119;-76
2023/10/01 10:56:10;;;;;;;5.18;1.70;;;;;;;21.26;55.76;99555.47;4468876;32;20088;-76
2023/10/01 10:58:45;;;;;;;4.97;1.70;;;;;;;20.98;57.24;99565.16;4468848;32;20616;-76
2023/10/01 11:01:18;;;;;;;6.05;1.52;;;;;;;20.92;54.25;99554.25;4468947;32;20184;-76
2023/10/01 11:03:56;;;;;;;;;;;;;;;21.15;54.63;99563.09;4469283;32;20085;-76
2023/10/01 11:06:42;;;;;;;3.05;1.60;;;;;;;20.52;52.78;99550.16;4468951;32;19998;-76
2023/10/01 11:09:22;;;;;;;6.65;2.47;;;;;;;20.99;53.54;99553.50;4468734;32;20085;-76
2023/10/01 11:12:18;;;;;;;3.72;1.58;;;;;;;20.84;54.61;99543.66;4467455;32;20472;-76
2023/10/01 11:17:50;;;;;;;4.65;1.92;;;;;;;20.58;54.87;99556.59;4468560;32;20167;-76
2023/10/01 11:20:24;;;;;;;8.48;1.95;;;;;;;20.31;55.89;99551.69;4468499;32;20115;-76
2023/10/01 11:22:54;;;;;;;;;;;;;;;20.24;56.62;99539.28;4468949;32;20535;-76
2023/10/01 11:25:24;;;;;;;6.97;1.70;;;;;;;20.33;55.80;99549.69;4468531;32;20349;-76
2023/10/01 11:28:08;;;;;;;3.55;1.08;;;;;;;20.39;55.25;99542.78;4467221;32;20139;-76
2023/10/01 11:30:42;;;;;;;6.25;1.40;;;;;;;20.29;56.18;99535.09;4469913;32;20159;-76
2023/10/01 11:35:59;;;;;;;8.25;1.55;;;;;;;20.07;57.02;99526.13;4470260;32;20105;-76
2023/10/01 11:38:31;;;;;;;4.20;1.30;;;;;;;20.00;56.41;99528.72;4470371;32;20089;-76
2023/10/01 11:41:07;;;;;;;3.92;1.48;;;;;;;19.87;58.54;99525.81;4470166;32;20490;-76
2023/10/01 11:43:58;;;;;;;5.05;1.50;;;;;;;20.23;58.46;99522.50;4470482;32;20080;-76
2023/10/01 11:46:35;;;;;;;9.25;1.30;;;;;;;20.52;56.86;99528.87;4470231;32;20147;-76
2023/10/01 11:49:06;;;;;;;4.47;1.20;;;;;;;20.59;54.34;99521.81;4469002;32;20096;-76
2023/10/01 11:51:54;;;;;;;2.90;1.15;;;;;;;20.85;55.23;99515.22;4470140;32;20105;-76
2023/10/01 11:54:25;;;;;;;3.75;1.40;;;;;;;20.72;53.85;99514.00;4481797;32;20124;-76
2023/10/01 11:57:05;;;;;;;4.62;1.40;;;;;;;20.85;54.83;99518.69;4485928;31;20085;-76
2023/10/01 11:59:41;;;;;;;4.97;1.30;;;;;;;20.95;53.91;99521.06;4485722;31;20084;-76
2023/10/01 12:02:20;;;;;;;3.53;1.33;;;;;;;20.86;52.51;99506.19;4485912;31;20114;-76
2023/10/01 12:04:56;;;;;;;5.30;2.08;;;;;;;20.77;52.17;99502.81;4485749;31;20077;-76
2023/10/01 12:07:32;;;;;;;5.95;1.62;;;;;;;20.58;52.72;99506.84;4485867;31;20108;-76
2023/10/01 12:10:04;;;;;;;5.15;1.40;;;;;;;20.71;53.50;99499.06;4484287;32;20096;-76
2023/10/01 12:12:37;;;;;;;6.75;1.27;;;;;;;20.72;50.70;99498.03;4485678;31;20369;-76
2023/10/01 12:17:53;;;;;;;5.57;1.17;;;;;;;21.00;48.51;99499.19;4470010;32;20500;-76
2023/10/01 12:20:30;;;;;;;4.32;1.10;;;;;;;20.98;48.97;99487.91;4469873;32;20500;-76
2023/10/01 12:23:10;;;;;;;3.85;1.20;;;;;;;20.90;49.79;99486.19;4470020;32;20085;-76
2023/10/01 12:28:18;;;;;;;5.57;1.17;;;;;;;21.21;50.42;99482.41;4469905;32;20164;-76
2023/10/01 12:30:57;;;;;;;3.87;1.15;;;;;;;21.42;48.30;99473.59;4469848;32;20081;-76
2023/10/01 12:33:25;;;;;;;4.57;1.25;;;;;;;21.44;47.41;99477.75;4470006;32;20081;-76
2023/10/01 12:35:53;;;;;;;4.47;1.10;;;;;;;21.30;47.95;99472.47;4469819;32;20540;-76
2023/10/01 12:40:52;;;;;;;7.45;1.52;;;;;;;21.74;47.93;99466.97;4469689;32;20096;-76
2023/10/01 12:43:37;;;;;;;7.03;1.50;;;;;;;21.70;47.00;99473.69;4469913;32;20096;-76
2023/10/01 12:46:10;;;;;;;4.37;1.48;;;;;;;21.98;45.32;99464.88;4470057;32;20090;-76
2023/10/01 12:51:33;;;;;;;7.15;1.67;;;;;;;22.08;44.50;99468.03;4469951;32;20085;-76
2023/10/01 12:54:06;;;;;;;5.22;1.20;;;;;;;22.19;44.36;99465.84;4479615;32;20156;-76